Terminal Aerodrome Forecast
Issued by NWS Pittsburgh, PA

Current Version | Previous Version | Graphics & Text | Print | Product List | Glossary On
Versions: 1 2 3 4 5 6 7 8 9 10 11 12 13 14 15 16 17 18 19 20 21 22 23 24 25 26 27 28 29 30 31
083
FTUS41 KPBZ 081854 AAA
TAFPIT
TAF AMD
KPIT 081854Z 0819/0924 21010KT P6SM -RA SCT015 OVC025
      TEMPO 0819/0820 2SM -SN BKN015
     FM082000 22005KT 3SM -RASN OVC006
     FM082300 25005KT P6SM OVC015
     FM090800 29005KT 5SM -SHSN OVC010
     FM091500 30008KT P6SM BKN020=

USA.gov is the U.S. government's official web portal to all federal, state and local government web resources and services.